createdAt,value
2017-05-29T00:02:16.526Z,90.50
2017-05-29T00:04:44.936Z,90.40
2017-05-29T00:07:13.279Z,90.40
2017-05-29T00:09:41.693Z,90.30
2017-05-29T00:12:10.019Z,90.50
2017-05-29T00:14:38.407Z,90.50
2017-05-29T00:17:06.725Z,90.50
2017-05-29T00:19:35.069Z,90.30
2017-05-29T00:22:03.384Z,90.40
2017-05-29T00:24:31.744Z,90.40
2017-05-29T00:27:00.061Z,90.60
2017-05-29T00:29:28.406Z,90.50
2017-05-29T00:31:56.737Z,90.50
2017-05-29T00:34:26.033Z,90.50
2017-05-29T00:36:54.371Z,90.50
2017-05-29T00:39:22.689Z,90.80
2017-05-29T00:41:51.045Z,90.50
2017-05-29T00:44:19.356Z,90.50
2017-05-29T00:46:47.663Z,90.50
2017-05-29T00:49:16.121Z,90.40
2017-05-29T00:51:44.435Z,90.40
2017-05-29T00:54:13.807Z,90.40
2017-05-29T00:56:42.114Z,90.40
2017-05-29T00:59:10.578Z,90.50
2017-05-29T01:01:38.891Z,90.70
2017-05-29T01:04:07.289Z,90.70
2017-05-29T01:06:34.860Z,90.70
2017-05-29T01:09:03.200Z,90.80
2017-05-29T01:11:31.532Z,90.70
2017-05-29T01:13:59.843Z,90.60
2017-05-29T01:16:28.204Z,90.60
2017-05-29T01:18:56.549Z,90.60
2017-05-29T01:21:24.864Z,90.60
2017-05-29T01:23:53.305Z,90.70
2017-05-29T01:26:21.619Z,90.60
2017-05-29T01:28:50.989Z,90.60
2017-05-29T01:31:19.306Z,90.50
2017-05-29T01:33:47.648Z,90.50
2017-05-29T01:36:15.969Z,90.50
2017-05-29T01:38:44.371Z,90.50
2017-05-29T01:41:12.704Z,90.50
2017-05-29T01:43:41.021Z,90.50
2017-05-29T01:46:09.432Z,90.40
2017-05-29T01:48:37.743Z,90.30
2017-05-29T01:51:06.105Z,90.30
2017-05-29T01:53:34.416Z,90.30
2017-05-29T01:56:02.728Z,90.30
2017-05-29T01:58:31.070Z,90.40
2017-05-29T02:00:59.388Z,90.40
2017-05-29T02:03:27.745Z,90.40
2017-05-29T02:05:56.056Z,90.30
2017-05-29T02:08:24.401Z,90.30
2017-05-29T02:10:52.775Z,90.20
2017-05-29T02:13:21.094Z,90.10
2017-05-29T02:15:49.462Z,90.10
2017-05-29T02:18:17.787Z,90.10
2017-05-29T02:20:46.128Z,90.10
2017-05-29T02:23:14.448Z,90.20
2017-05-29T02:25:42.761Z,90.20
2017-05-29T02:28:11.096Z,90.20
2017-05-29T02:30:39.504Z,90.20
2017-05-29T02:33:07.841Z,90.10
2017-05-29T02:35:36.156Z,90.10
2017-05-29T02:38:04.562Z,90.10
2017-05-29T02:40:32.868Z,90.10
2017-05-29T02:43:01.191Z,90.20
2017-05-29T02:45:29.527Z,90.10
2017-05-29T02:47:57.839Z,90.10
2017-05-29T02:50:26.177Z,90.10
2017-05-29T02:52:54.492Z,90.20
2017-05-29T02:55:22.919Z,90.10
2017-05-29T02:57:51.229Z,90.10
2017-05-29T03:00:19.544Z,90.20
2017-05-29T03:02:47.888Z,90.20
2017-05-29T03:05:16.204Z,90.20
2017-05-29T03:07:44.546Z,90.20
2017-05-29T03:10:12.869Z,90.20
2017-05-29T03:12:41.231Z,90.20
2017-05-29T03:15:09.552Z,90.20
2017-05-29T03:17:37.973Z,90.20
2017-05-29T03:20:06.313Z,90.10
2017-05-29T03:22:34.628Z,90.10
2017-05-29T03:25:02.966Z,90.10
2017-05-29T03:27:31.275Z,90.10
2017-05-29T03:29:59.614Z,90.00
2017-05-29T03:32:27.932Z,90.30
2017-05-29T03:34:56.248Z,90.00
2017-05-29T03:37:23.825Z,90.00
2017-05-29T03:39:52.146Z,90.00
2017-05-29T03:42:20.481Z,90.00
2017-05-29T03:44:48.797Z,90.00
2017-05-29T03:47:17.201Z,90.00
2017-05-29T03:49:45.520Z,90.00
2017-05-29T03:52:13.834Z,90.00
2017-05-29T03:54:42.172Z,90.40
2017-05-29T03:57:10.488Z,90.00
2017-05-29T03:59:38.880Z,90.00
2017-05-29T04:02:07.199Z,90.00
2017-05-29T04:04:35.558Z,90.00
2017-05-29T04:07:03.908Z,90.00
2017-05-29T04:09:32.272Z,90.00
2017-05-29T04:12:00.613Z,90.10
2017-05-29T04:14:28.923Z,90.20
2017-05-29T04:16:57.261Z,90.10
2017-05-29T04:19:25.576Z,90.00
2017-05-29T04:21:54.009Z,90.00
2017-05-29T04:24:22.337Z,89.80
2017-05-29T04:26:50.651Z,89.60
2017-05-29T04:29:19.020Z,89.30
2017-05-29T04:31:47.335Z,89.10
2017-05-29T04:34:15.670Z,88.90
2017-05-29T04:36:43.987Z,88.70
2017-05-29T04:39:12.344Z,88.20
2017-05-29T04:41:40.659Z,86.60
2017-05-29T04:44:08.986Z,85.00
2017-05-29T04:46:37.324Z,83.80
2017-05-29T04:49:05.636Z,82.30
2017-05-29T04:51:33.977Z,81.60
2017-05-29T04:54:02.292Z,81.00
2017-05-29T04:56:30.687Z,80.20
2017-05-29T04:58:58.999Z,78.90
2017-05-29T05:01:27.364Z,77.60
2017-05-29T05:03:55.737Z,76.90
2017-05-29T05:06:24.084Z,77.00
2017-05-29T05:08:52.411Z,76.70
2017-05-29T05:11:20.741Z,75.80
2017-05-29T05:13:49.089Z,75.60
2017-05-29T05:16:17.411Z,76.00
2017-05-29T05:18:45.728Z,76.90
2017-05-29T05:21:14.086Z,78.00
2017-05-29T05:23:42.443Z,79.10
2017-05-29T05:26:10.846Z,79.50
2017-05-29T05:28:39.209Z,79.60
2017-05-29T05:31:07.547Z,79.60
2017-05-29T05:33:35.856Z,79.90
2017-05-29T05:36:04.169Z,80.20
2017-05-29T05:38:32.538Z,80.60
2017-05-29T05:41:00.864Z,80.80
2017-05-29T05:43:29.209Z,81.20
2017-05-29T05:45:57.529Z,81.60
2017-05-29T05:48:25.966Z,82.00
2017-05-29T05:50:54.290Z,82.30
2017-05-29T05:53:22.640Z,82.60
2017-05-29T05:55:50.976Z,82.70
2017-05-29T05:58:19.292Z,82.50
2017-05-29T06:00:47.660Z,81.80
2017-05-29T06:03:15.980Z,81.60
2017-05-29T06:05:44.317Z,81.50
2017-05-29T06:08:12.656Z,81.30
2017-05-29T06:10:40.981Z,82.10
2017-05-29T06:13:09.340Z,80.90
2017-05-29T06:15:37.664Z,80.50
2017-05-29T06:18:05.995Z,80.20
2017-05-29T06:20:34.501Z,80.00
2017-05-29T06:23:02.833Z,79.30
2017-05-29T06:25:31.178Z,78.50
2017-05-29T06:27:59.504Z,78.00
2017-05-29T06:30:27.867Z,77.20
2017-05-29T06:32:56.188Z,76.70
2017-05-29T06:35:24.523Z,76.70
2017-05-29T06:37:52.865Z,76.60
2017-05-29T06:40:21.180Z,76.90
2017-05-29T06:42:49.533Z,77.00
2017-05-29T06:45:17.854Z,76.90
2017-05-29T06:47:46.173Z,76.20
2017-05-29T06:50:14.509Z,75.70
2017-05-29T06:52:42.824Z,75.50
2017-05-29T06:55:11.164Z,75.40
2017-05-29T06:57:38.712Z,75.40
2017-05-29T07:00:07.036Z,74.50
2017-05-29T07:02:35.377Z,73.90
2017-05-29T07:05:03.689Z,73.80
2017-05-29T07:07:32.048Z,73.40
2017-05-29T07:10:00.368Z,73.60
2017-05-29T07:12:28.688Z,72.90
2017-05-29T07:14:57.039Z,72.50
2017-05-29T07:17:25.352Z,71.40
2017-05-29T07:19:53.733Z,70.50
2017-05-29T07:22:22.051Z,69.50
2017-05-29T07:24:50.362Z,69.10
2017-05-29T07:27:18.697Z,68.60
2017-05-29T07:29:46.248Z,68.60
2017-05-29T07:32:14.589Z,66.10
2017-05-29T07:34:44.856Z,64.50
2017-05-29T07:37:13.190Z,63.60
2017-05-29T07:39:41.532Z,61.30
2017-05-29T07:42:09.860Z,60.20
2017-05-29T07:44:38.201Z,57.30
2017-05-29T07:47:05.760Z,57.20
2017-05-29T07:49:34.088Z,52.60
2017-05-29T07:52:02.419Z,53.30
2017-05-29T07:54:30.791Z,53.00
2017-05-29T07:56:58.350Z,53.00
2017-05-29T07:59:26.679Z,51.80
2017-05-29T08:01:55.055Z,51.20
2017-05-29T08:04:23.389Z,51.10
2017-05-29T08:06:51.700Z,50.60
2017-05-29T08:09:20.035Z,48.40
2017-05-29T08:11:48.349Z,47.50
2017-05-29T08:14:16.665Z,46.40
2017-05-29T08:16:45.004Z,46.30
2017-05-29T08:19:13.308Z,45.10
2017-05-29T08:21:41.652Z,45.50
2017-05-29T08:24:10.027Z,44.40
2017-05-29T08:26:38.479Z,43.90
2017-05-29T08:29:06.794Z,44.10
2017-05-29T08:31:35.146Z,42.20
2017-05-29T08:34:03.483Z,41.90
2017-05-29T08:36:31.113Z,41.90
2017-05-29T08:38:59.423Z,40.40
2017-05-29T08:41:27.770Z,40.50
2017-05-29T08:43:56.109Z,40.60
2017-05-29T08:46:24.448Z,40.30
2017-05-29T08:48:52.760Z,39.90
2017-05-29T08:51:21.127Z,40.20
2017-05-29T08:53:49.442Z,39.30
2017-05-29T08:56:17.780Z,38.60
2017-05-29T08:58:46.083Z,39.00
2017-05-29T09:01:14.421Z,39.70
2017-05-29T09:03:42.740Z,39.90
2017-05-29T09:06:11.086Z,40.50
2017-05-29T09:08:39.403Z,39.70
2017-05-29T09:11:07.743Z,39.00
2017-05-29T09:13:36.053Z,39.10
2017-05-29T09:16:04.393Z,38.40
2017-05-29T09:18:32.783Z,38.20
2017-05-29T09:21:01.125Z,37.20
2017-05-29T09:23:29.443Z,38.00
2017-05-29T09:25:57.785Z,38.30
2017-05-29T09:28:26.145Z,38.10
2017-05-29T09:30:54.528Z,38.00
2017-05-29T09:33:22.916Z,38.00
2017-05-29T09:35:51.268Z,37.10
2017-05-29T09:38:19.586Z,37.20
2017-05-29T09:40:47.923Z,36.90
2017-05-29T09:43:16.242Z,36.60
2017-05-29T09:45:44.588Z,36.90
2017-05-29T09:48:12.906Z,38.10
2017-05-29T09:50:41.251Z,36.30
2017-05-29T09:53:09.575Z,35.50
2017-05-29T09:55:37.924Z,35.10
2017-05-29T09:58:06.252Z,34.30
2017-05-29T10:00:34.604Z,35.10
2017-05-29T10:03:02.925Z,34.50
2017-05-29T10:05:31.285Z,34.20
2017-05-29T10:07:59.603Z,34.10
2017-05-29T10:10:27.965Z,34.40
2017-05-29T10:12:56.618Z,35.30
2017-05-29T10:15:24.932Z,35.60
2017-05-29T10:17:53.295Z,34.10
2017-05-29T10:20:20.882Z,34.10
2017-05-29T10:22:49.223Z,34.30
2017-05-29T10:25:17.540Z,34.10
2017-05-29T10:27:45.942Z,34.60
2017-05-29T10:30:18.635Z,34.00
2017-05-29T10:32:48.669Z,33.20
2017-05-29T10:35:17.003Z,33.00
2017-05-29T10:37:45.362Z,33.30
2017-05-29T10:40:15.411Z,33.30
2017-05-29T10:42:43.772Z,34.00
2017-05-29T10:45:12.334Z,34.00
2017-05-29T10:47:40.829Z,32.90
2017-05-29T10:50:09.317Z,31.50
2017-05-29T10:52:37.821Z,31.90
2017-05-29T10:55:06.497Z,32.20
2017-05-29T10:57:34.922Z,31.90
2017-05-29T11:00:07.455Z,32.40
2017-05-29T11:02:36.043Z,33.20
2017-05-29T11:05:04.355Z,32.30
2017-05-29T11:07:31.976Z,32.20
2017-05-29T11:10:00.296Z,32.80
2017-05-29T11:12:28.672Z,32.00
2017-05-29T11:14:56.987Z,30.20
2017-05-29T11:17:25.327Z,31.70
2017-05-29T11:19:53.652Z,30.30
2017-05-29T11:22:21.991Z,29.90
2017-05-29T11:24:50.313Z,29.70
2017-05-29T11:27:17.892Z,29.70
2017-05-29T11:29:46.209Z,29.80
2017-05-29T11:32:14.549Z,29.70
2017-05-29T11:34:42.869Z,30.00
2017-05-29T11:37:11.225Z,29.60
2017-05-29T11:39:39.543Z,29.10
2017-05-29T11:42:07.884Z,29.40
2017-05-29T11:44:36.202Z,29.60
2017-05-29T11:47:04.609Z,29.50
2017-05-29T11:49:32.920Z,29.50
2017-05-29T11:52:01.255Z,28.00
2017-05-29T11:54:29.578Z,28.00
2017-05-29T11:56:57.913Z,28.60
2017-05-29T11:59:26.242Z,28.20
2017-05-29T12:01:54.588Z,27.20
2017-05-29T12:04:23.113Z,26.40
2017-05-29T12:06:51.472Z,27.30
2017-05-29T12:09:19.108Z,27.30
2017-05-29T12:11:46.682Z,27.70
2017-05-29T12:14:14.996Z,27.30
2017-05-29T12:16:43.359Z,27.20
2017-05-29T12:19:11.668Z,28.40
2017-05-29T12:21:39.979Z,28.00
2017-05-29T12:24:08.348Z,26.80
2017-05-29T12:26:36.698Z,25.40
2017-05-29T12:29:05.039Z,26.20
2017-05-29T12:31:33.358Z,27.10
2017-05-29T12:34:01.698Z,27.30
2017-05-29T12:36:30.066Z,26.40
2017-05-29T12:38:58.400Z,26.00
2017-05-29T12:41:26.717Z,25.80
2017-05-29T12:43:55.065Z,25.90
2017-05-29T12:46:23.386Z,26.10
2017-05-29T12:48:51.724Z,26.10
2017-05-29T12:51:20.044Z,26.70
2017-05-29T12:53:49.397Z,27.60
2017-05-29T12:56:17.705Z,27.10
2017-05-29T12:58:46.049Z,27.70
2017-05-29T13:01:14.360Z,26.80
2017-05-29T13:03:42.697Z,26.20
2017-05-29T13:06:11.026Z,26.10
2017-05-29T13:08:39.365Z,26.00
2017-05-29T13:11:06.912Z,26.00
2017-05-29T13:13:35.255Z,25.60
2017-05-29T13:16:03.569Z,26.60
2017-05-29T13:18:31.911Z,26.10
2017-05-29T13:21:00.291Z,27.00
2017-05-29T13:23:28.629Z,27.10
2017-05-29T13:25:56.935Z,26.40
2017-05-29T13:28:25.275Z,25.40
2017-05-29T13:30:53.591Z,25.30
2017-05-29T13:33:21.923Z,26.00
2017-05-29T13:35:50.231Z,26.20
2017-05-29T13:38:18.574Z,25.90
2017-05-29T13:40:46.884Z,26.80
2017-05-29T13:43:15.244Z,26.60
2017-05-29T13:45:43.556Z,26.90
2017-05-29T13:48:11.914Z,26.50
2017-05-29T13:50:40.229Z,25.50
2017-05-29T13:53:08.571Z,25.80
2017-05-29T13:55:36.884Z,27.30
2017-05-29T13:58:05.221Z,27.60
2017-05-29T14:00:33.533Z,27.50
2017-05-29T14:03:01.866Z,27.60
2017-05-29T14:05:30.177Z,26.90
2017-05-29T14:07:58.526Z,26.00
2017-05-29T14:10:26.851Z,25.60
2017-05-29T14:12:55.183Z,25.40
2017-05-29T14:15:23.495Z,25.20
2017-05-29T14:17:51.832Z,25.60
2017-05-29T14:20:20.171Z,25.30
2017-05-29T14:22:48.489Z,25.10
2017-05-29T14:25:16.827Z,25.20
2017-05-29T14:27:45.139Z,25.60
2017-05-29T14:30:13.523Z,25.50
2017-05-29T14:32:41.846Z,26.60
2017-05-29T14:35:10.223Z,26.30
2017-05-29T14:37:38.541Z,24.60
2017-05-29T14:40:11.075Z,25.20
2017-05-29T14:42:39.380Z,25.90
2017-05-29T14:45:07.713Z,25.80
2017-05-29T14:47:36.019Z,25.30
2017-05-29T14:50:04.393Z,24.50
2017-05-29T14:52:32.703Z,24.60
2017-05-29T14:55:01.044Z,24.80
2017-05-29T14:57:29.365Z,25.80
2017-05-29T14:59:57.710Z,25.10
2017-05-29T15:02:26.034Z,24.10
2017-05-29T15:04:54.376Z,23.00
2017-05-29T15:07:22.693Z,23.60
2017-05-29T15:09:51.045Z,23.80
2017-05-29T15:12:19.368Z,23.00
2017-05-29T15:14:47.719Z,23.50
2017-05-29T15:17:16.028Z,24.20
2017-05-29T15:19:44.372Z,24.10
2017-05-29T15:22:12.683Z,24.90
2017-05-29T15:24:41.024Z,24.90
2017-05-29T15:27:09.340Z,22.70
2017-05-29T15:29:37.689Z,23.30
2017-05-29T15:32:06.015Z,23.00
2017-05-29T15:34:34.355Z,22.90
2017-05-29T15:37:02.673Z,23.70
2017-05-29T15:39:31.012Z,24.00
2017-05-29T15:41:59.320Z,23.70
2017-05-29T15:44:27.664Z,23.60
2017-05-29T15:46:55.996Z,24.20
2017-05-29T15:49:24.343Z,24.90
2017-05-29T15:51:52.664Z,23.50
2017-05-29T15:54:21.003Z,23.70
2017-05-29T15:56:49.325Z,22.60
2017-05-29T15:59:17.670Z,23.10
2017-05-29T16:01:46.005Z,23.40
2017-05-29T16:04:14.370Z,24.00
2017-05-29T16:06:42.692Z,22.60
2017-05-29T16:09:11.062Z,23.20
2017-05-29T16:11:39.377Z,23.60
2017-05-29T16:14:07.720Z,24.10
2017-05-29T16:16:36.037Z,24.80
2017-05-29T16:19:04.386Z,25.50
2017-05-29T16:21:32.728Z,26.00
2017-05-29T16:24:01.057Z,26.50
2017-05-29T16:26:29.399Z,27.00
2017-05-29T16:28:57.716Z,27.90
2017-05-29T16:31:26.060Z,29.40
2017-05-29T16:33:54.377Z,29.70
2017-05-29T16:36:21.961Z,29.70
2017-05-29T16:38:50.276Z,30.30
2017-05-29T16:41:18.629Z,30.30
2017-05-29T16:43:46.963Z,30.60
2017-05-29T16:46:15.314Z,30.70
2017-05-29T16:48:43.733Z,31.20
2017-05-29T16:51:12.072Z,31.70
2017-05-29T16:53:40.392Z,32.60
2017-05-29T16:56:08.766Z,33.50
2017-05-29T16:58:37.103Z,34.90
2017-05-29T17:01:05.449Z,34.80
2017-05-29T17:03:33.782Z,35.40
2017-05-29T17:06:02.125Z,35.60
2017-05-29T17:08:30.450Z,34.30
2017-05-29T17:10:58.807Z,32.30
2017-05-29T17:13:27.121Z,30.00
2017-05-29T17:15:55.514Z,29.10
2017-05-29T17:18:23.854Z,28.30
2017-05-29T17:20:52.205Z,27.10
2017-05-29T17:23:20.532Z,26.30
2017-05-29T17:25:48.878Z,25.40
2017-05-29T17:28:17.188Z,24.60
2017-05-29T17:30:45.530Z,24.50
2017-05-29T17:33:13.849Z,25.30
2017-05-29T17:35:42.231Z,27.20
2017-05-29T17:38:11.560Z,29.00
2017-05-29T17:40:39.905Z,30.40
2017-05-29T17:43:08.221Z,32.20
2017-05-29T17:45:36.922Z,33.90
2017-05-29T17:48:05.232Z,34.20
2017-05-29T17:50:33.572Z,35.20
2017-05-29T17:53:01.880Z,36.00
2017-05-29T17:55:30.223Z,36.50
2017-05-29T17:57:58.539Z,37.20
2017-05-29T18:00:26.880Z,37.80
2017-05-29T18:02:55.221Z,38.30
2017-05-29T18:05:23.561Z,38.70
2017-05-29T18:07:51.889Z,38.80
2017-05-29T18:10:20.231Z,38.90
2017-05-29T18:12:48.551Z,38.80
2017-05-29T18:15:16.896Z,39.00
2017-05-29T18:17:44.447Z,39.00
2017-05-29T18:20:12.765Z,40.30
2017-05-29T18:22:41.124Z,39.90
2017-05-29T18:25:09.432Z,40.10
2017-05-29T18:27:36.996Z,40.10
2017-05-29T18:30:05.307Z,40.20
2017-05-29T18:32:33.653Z,40.80
2017-05-29T18:35:01.977Z,41.20
2017-05-29T18:37:30.317Z,41.60
2017-05-29T18:39:58.635Z,42.30
2017-05-29T18:42:26.977Z,42.40
2017-05-29T18:44:55.316Z,43.10
2017-05-29T18:47:23.665Z,43.30
2017-05-29T18:49:51.974Z,43.90
2017-05-29T18:52:20.380Z,43.70
2017-05-29T18:54:48.701Z,44.10
2017-05-29T18:57:17.056Z,44.90
2017-05-29T18:59:44.600Z,44.30
2017-05-29T19:02:13.003Z,45.70
2017-05-29T19:04:41.317Z,46.90
2017-05-29T19:07:09.674Z,47.70
2017-05-29T19:09:38.092Z,48.10
2017-05-29T19:12:06.471Z,48.50
2017-05-29T19:14:34.985Z,48.90
2017-05-29T19:17:03.328Z,48.30
2017-05-29T19:19:31.667Z,47.90
2017-05-29T19:22:00.182Z,47.70
2017-05-29T19:24:28.506Z,47.20
2017-05-29T19:26:56.859Z,47.90
2017-05-29T19:29:24.399Z,48.50
2017-05-29T19:31:52.740Z,49.20
2017-05-29T19:34:21.053Z,49.30
2017-05-29T19:36:49.395Z,50.00
2017-05-29T19:39:17.730Z,51.00
2017-05-29T19:41:46.091Z,51.40
2017-05-29T19:44:14.399Z,52.10
2017-05-29T19:46:42.739Z,52.50
2017-05-29T19:49:11.066Z,53.00
2017-05-29T19:51:39.463Z,54.10
2017-05-29T19:54:07.771Z,54.70
2017-05-29T19:56:36.106Z,54.90
2017-05-29T19:59:04.411Z,54.60
2017-05-29T20:01:32.851Z,55.00
2017-05-29T20:04:01.171Z,55.60
2017-05-29T20:06:29.516Z,56.60
2017-05-29T20:08:57.836Z,56.90
2017-05-29T20:11:26.185Z,57.20
2017-05-29T20:13:54.504Z,57.70
2017-05-29T20:16:22.862Z,58.60
2017-05-29T20:18:51.320Z,59.60
2017-05-29T20:21:19.644Z,61.30
2017-05-29T20:23:47.999Z,62.60
2017-05-29T20:26:16.307Z,63.40
2017-05-29T20:28:44.652Z,63.60
2017-05-29T20:31:12.961Z,64.10
2017-05-29T20:33:41.412Z,65.10
2017-05-29T20:36:09.761Z,66.30
2017-05-29T20:38:38.115Z,65.20
2017-05-29T20:41:06.429Z,65.30
2017-05-29T20:43:34.793Z,65.00
2017-05-29T20:46:03.108Z,65.20
2017-05-29T20:48:31.514Z,65.90
2017-05-29T20:50:59.860Z,66.40
2017-05-29T20:53:28.214Z,67.00
2017-05-29T20:55:56.608Z,67.90
2017-05-29T20:58:24.957Z,68.40
2017-05-29T21:00:53.270Z,68.90
2017-05-29T21:03:21.613Z,68.90
2017-05-29T21:05:49.942Z,69.00
2017-05-29T21:08:18.329Z,69.20
2017-05-29T21:10:46.658Z,69.20
2017-05-29T21:13:15.000Z,68.80
2017-05-29T21:15:43.314Z,68.80
2017-05-29T21:18:11.664Z,68.80
2017-05-29T21:20:39.984Z,69.60
2017-05-29T21:23:08.397Z,69.60
2017-05-29T21:25:36.716Z,69.50
2017-05-29T21:28:05.154Z,69.50
2017-05-29T21:30:33.481Z,69.70
2017-05-29T21:33:01.929Z,69.60
2017-05-29T21:35:30.245Z,69.70
2017-05-29T21:37:58.564Z,70.00
2017-05-29T21:40:26.916Z,70.40
2017-05-29T21:42:55.227Z,70.60
2017-05-29T21:45:23.573Z,70.80
2017-05-29T21:47:51.943Z,70.70
2017-05-29T21:50:20.304Z,70.50
2017-05-29T21:52:48.624Z,70.50
2017-05-29T21:55:16.937Z,70.70
2017-05-29T21:57:45.289Z,70.70
2017-05-29T22:00:13.600Z,70.70
2017-05-29T22:02:41.974Z,70.90
2017-05-29T22:05:10.311Z,70.20
2017-05-29T22:07:37.918Z,70.10
2017-05-29T22:10:06.246Z,70.30
2017-05-29T22:12:34.571Z,70.80
2017-05-29T22:15:02.915Z,70.80
2017-05-29T22:17:30.459Z,70.70
2017-05-29T22:19:58.819Z,71.10
2017-05-29T22:22:27.180Z,71.10
2017-05-29T22:24:55.505Z,71.20
2017-05-29T22:27:23.841Z,71.40
2017-05-29T22:29:52.147Z,71.50
2017-05-29T22:32:20.898Z,71.00
2017-05-29T22:34:49.213Z,70.90
2017-05-29T22:37:17.565Z,70.90
2017-05-29T22:39:45.897Z,70.80
2017-05-29T22:42:14.330Z,70.80
2017-05-29T22:44:42.676Z,70.80
2017-05-29T22:47:11.079Z,71.20
2017-05-29T22:49:39.431Z,71.70
2017-05-29T22:52:07.757Z,72.00
2017-05-29T22:54:36.165Z,72.50
2017-05-29T22:57:04.483Z,72.60
2017-05-29T22:59:32.881Z,72.80
2017-05-29T23:02:01.236Z,73.00
2017-05-29T23:04:29.560Z,73.50
2017-05-29T23:06:57.909Z,73.50
2017-05-29T23:09:26.243Z,73.80
2017-05-29T23:11:54.615Z,74.30
2017-05-29T23:14:23.851Z,74.60
2017-05-29T23:16:52.169Z,75.20
2017-05-29T23:19:20.536Z,75.60
2017-05-29T23:21:48.869Z,75.90
2017-05-29T23:24:18.216Z,75.90
2017-05-29T23:26:46.548Z,76.30
2017-05-29T23:29:14.902Z,76.40
2017-05-29T23:31:43.219Z,76.60
2017-05-29T23:34:12.452Z,76.70
2017-05-29T23:36:40.825Z,76.90
2017-05-29T23:39:09.181Z,77.10
2017-05-29T23:41:37.529Z,77.20
2017-05-29T23:44:05.849Z,77.50
2017-05-29T23:46:33.431Z,77.40
2017-05-29T23:49:01.775Z,77.90
2017-05-29T23:51:30.092Z,78.00
2017-05-29T23:53:58.457Z,77.90
2017-05-29T23:56:26.775Z,77.80
2017-05-29T23:58:55.125Z,78.00
